Time;durP1;ratioP1;P1;durP2;ratioP2;P2;SDS_P1;SDS_P2;PMS_P1;PMS_P2;Temp;Humidity;BMP_temperature;BMP_pressure;BME280_temperature;BME280_humidity;BME280_pressure;Samples;Min_cycle;Max_cycle;Signal;HPM_P1;HPM_P2
2022/07/02 00:02:02;;;;;;;4.97;3.80;;;21.20;99.90;;;;;;5028018;28;20260;-70
2022/07/02 00:04:32;;;;;;;5.20;3.90;;;21.20;99.90;;;;;;5028910;28;20204;-69
2022/07/02 00:06:59;;;;;;;4.70;3.97;;;21.20;99.90;;;;;;5028396;28;20223;-69
2022/07/02 00:09:28;;;;;;;4.67;3.50;;;21.10;99.90;;;;;;5029706;28;20251;-69
2022/07/02 00:11:57;;;;;;;4.40;3.70;;;21.10;99.90;;;;;;5020132;28;20573;-69
2022/07/02 00:14:25;;;;;;;3.90;3.30;;;21.10;99.90;;;;;;5020383;28;20211;-69
2022/07/02 00:16:54;;;;;;;5.10;3.70;;;21.10;99.90;;;;;;5010002;28;20301;-69
2022/07/02 00:19:22;;;;;;;5.07;3.47;;;21.00;99.90;;;;;;5009833;28;20213;-69
2022/07/02 00:21:50;;;;;;;6.87;3.80;;;21.00;99.90;;;;;;5009453;28;20585;-70
2022/07/02 00:24:16;;;;;;;7.87;3.73;;;21.00;99.90;;;;;;5020349;28;20212;-70
2022/07/02 00:26:52;;;;;;;5.63;4.10;;;21.00;99.90;;;;;;5029209;28;20226;-70
2022/07/02 00:29:35;;;;;;;5.63;3.90;;;20.90;99.90;;;;;;5029865;28;20186;-70
2022/07/02 00:32:02;;;;;;;5.80;4.27;;;20.80;99.90;;;;;;5029678;28;20220;-70
2022/07/02 00:34:31;;;;;;;8.00;4.47;;;20.90;99.90;;;;;;5010473;28;20311;-70
2022/07/02 00:36:58;;;;;;;7.53;3.93;;;20.80;99.90;;;;;;5009698;28;20298;-70
2022/07/02 00:39:25;;;;;;;5.53;3.97;;;20.80;99.90;;;;;;5009941;28;20203;-70
2022/07/02 00:41:55;;;;;;;5.33;3.90;;;20.70;99.90;;;;;;5009649;28;20217;-70
2022/07/02 00:44:23;;;;;;;4.77;4.20;;;20.70;99.90;;;;;;5023462;28;20706;-69
2022/07/02 00:46:50;;;;;;;7.77;4.40;;;20.70;99.90;;;;;;5028600;28;20225;-70
2022/07/02 00:49:17;;;;;;;6.43;4.93;;;20.70;99.90;;;;;;5029187;28;20202;-68
2022/07/02 00:51:44;;;;;;;6.10;4.43;;;20.60;99.90;;;;;;5029086;28;20208;-68
2022/07/02 00:54:11;;;;;;;5.63;4.47;;;20.70;99.90;;;;;;5027939;28;20206;-69
2022/07/02 00:56:38;;;;;;;6.60;4.60;;;20.60;99.90;;;;;;5027668;28;20251;-69
2022/07/02 00:59:07;;;;;;;6.67;4.50;;;20.60;99.90;;;;;;5029342;28;20397;-68
2022/07/02 01:01:34;;;;;;;5.80;4.57;;;20.60;99.90;;;;;;5028950;28;20210;-68
2022/07/02 01:04:02;;;;;;;6.23;4.43;;;20.60;99.90;;;;;;5026859;28;20216;-70
2022/07/02 01:06:32;;;;;;;6.20;4.50;;;20.60;99.90;;;;;;5029062;28;20220;-70
2022/07/02 01:11:47;;;;;;;8.47;6.03;;;20.50;99.90;;;;;;5028633;28;20185;-69
2022/07/02 01:14:19;;;;;;;7.17;5.70;;;20.50;99.90;;;;;;5013227;28;20214;-69
2022/07/02 01:16:46;;;;;;;7.07;5.57;;;20.50;99.90;;;;;;5009128;28;20555;-69
2022/07/02 01:19:17;;;;;;;7.57;5.40;;;20.50;99.90;;;;;;5010647;28;20296;-69
2022/07/02 01:22:09;;;;;;;7.53;5.47;;;20.50;99.90;;;;;;5021712;28;20223;-69
2022/07/02 01:24:36;;;;;;;7.30;5.53;;;20.50;99.90;;;;;;5027566;28;20206;-69
2022/07/02 01:27:03;;;;;;;8.80;6.23;;;20.50;99.90;;;;;;5028804;28;20239;-70
2022/07/02 01:29:30;;;;;;;11.70;7.90;;;20.50;99.90;;;;;;5028794;28;20261;-70
2022/07/02 01:31:56;;;;;;;8.70;6.10;;;20.40;99.90;;;;;;5028589;28;20301;-69
2022/07/02 01:34:24;;;;;;;8.30;6.20;;;20.40;99.90;;;;;;5013304;28;20785;-70
2022/07/02 01:36:50;;;;;;;7.40;5.63;;;20.40;99.90;;;;;;5009190;28;20804;-70
2022/07/02 01:39:24;;;;;;;8.73;5.43;;;20.40;99.90;;;;;;5009134;28;20305;-69
2022/07/02 01:41:51;;;;;;;7.93;5.57;;;20.40;99.90;;;;;;5009682;28;20214;-70
2022/07/02 01:44:18;;;;;;;8.70;5.20;;;20.40;99.90;;;;;;5008751;28;20262;-68
2022/07/02 01:46:46;;;;;;;9.67;5.40;;;20.40;99.90;;;;;;5025457;28;20709;-70
2022/07/02 01:49:13;;;;;;;10.53;5.33;;;20.40;99.90;;;;;;5028431;28;20210;-70
2022/07/02 01:51:40;;;;;;;8.00;5.30;;;20.40;99.90;;;;;;5026325;28;20217;-68
2022/07/02 01:54:07;;;;;;;7.63;5.50;;;20.40;99.90;;;;;;5028576;28;20207;-70
2022/07/02 01:56:36;;;;;;;7.40;5.40;;;20.30;99.90;;;;;;5027133;28;20204;-68
2022/07/02 01:59:04;;;;;;;8.33;5.67;;;20.30;99.90;;;;;;5022452;28;20224;-70
2022/07/02 02:01:31;;;;;;;9.03;5.03;;;20.30;99.90;;;;;;5014634;28;20204;-70
2022/07/02 02:03:58;;;;;;;7.03;5.37;;;20.30;99.90;;;;;;5028384;28;20235;-69
2022/07/02 02:06:26;;;;;;;8.33;4.90;;;20.30;99.90;;;;;;5028129;28;20291;-70
2022/07/02 02:08:53;;;;;;;6.80;4.70;;;20.30;99.90;;;;;;5023309;28;20226;-70
2022/07/02 02:11:20;;;;;;;9.77;5.23;;;20.30;99.90;;;;;;5024309;28;20312;-68
2022/07/02 02:13:48;;;;;;;6.63;5.47;;;20.30;99.90;;;;;;5028369;28;20202;-69
2022/07/02 02:16:15;;;;;;;7.10;5.20;;;20.40;99.90;;;;;;5027967;28;20202;-70
2022/07/02 02:18:42;;;;;;;7.17;4.80;;;20.30;99.90;;;;;;5027908;28;20213;-69
2022/07/02 02:21:10;;;;;;;6.77;5.20;;;20.30;99.90;;;;;;5017457;28;20247;-69
2022/07/02 02:23:36;;;;;;;6.30;5.03;;;20.40;99.90;;;;;;5008046;28;20204;-69
2022/07/02 02:26:03;;;;;;;6.23;4.83;;;20.40;99.90;;;;;;5008541;28;20258;-69
2022/07/02 02:28:30;;;;;;;6.03;4.50;;;20.50;99.90;;;;;;5007838;28;20207;-69
2022/07/02 02:30:59;;;;;;;5.97;4.33;;;20.50;99.90;;;;;;5022470;28;20254;-69
2022/07/02 02:33:26;;;;;;;5.47;4.40;;;20.50;99.90;;;;;;5027899;28;20236;-70
2022/07/02 02:35:52;;;;;;;5.57;4.10;;;20.40;99.90;;;;;;5030661;28;20301;-70
2022/07/02 02:38:19;;;;;;;7.30;4.60;;;20.40;99.90;;;;;;5031247;28;20676;-69
2022/07/02 02:40:46;;;;;;;7.63;4.07;;;20.40;99.90;;;;;;5022422;28;20729;-69
2022/07/02 02:43:13;;;;;;;6.97;4.30;;;20.50;99.90;;;;;;5018368;28;20236;-67
2022/07/02 02:45:40;;;;;;;6.80;3.93;;;20.60;99.90;;;;;;5029522;28;20209;-66
2022/07/02 02:48:08;;;;;;;5.00;4.00;;;20.60;99.90;;;;;;5031279;28;20232;-67
2022/07/02 02:50:35;;;;;;;9.60;4.47;;;20.60;99.90;;;;;;5029813;28;20255;-68
2022/07/02 02:53:03;;;;;;;6.07;4.13;;;20.70;99.90;;;;;;5031301;28;20694;-68
2022/07/02 02:55:30;;;;;;;6.40;3.83;;;20.70;99.90;;;;;;5030864;28;20310;-67
2022/07/02 02:57:57;;;;;;;5.57;4.20;;;20.70;99.90;;;;;;5030003;28;20198;-68
2022/07/02 03:00:24;;;;;;;8.03;4.67;;;20.70;99.90;;;;;;5023633;28;20210;-67
2022/07/02 03:02:51;;;;;;;6.37;3.90;;;20.70;99.90;;;;;;5031119;28;20296;-66
2022/07/02 03:05:19;;;;;;;9.97;4.53;;;20.70;99.90;;;;;;5028107;28;20206;-68
2022/07/02 03:07:46;;;;;;;6.03;3.93;;;20.80;99.90;;;;;;5011214;28;20231;-67
2022/07/02 03:10:13;;;;;;;7.53;4.47;;;20.80;99.90;;;;;;5022705;28;20674;-67
2022/07/02 03:12:40;;;;;;;5.07;4.27;;;20.80;99.90;;;;;;5030868;28;20270;-69
2022/07/02 03:15:08;;;;;;;6.60;4.10;;;20.90;99.90;;;;;;5030845;28;20210;-67
2022/07/02 03:17:35;;;;;;;4.63;4.03;;;20.90;99.90;;;;;;5030583;28;20662;-67
2022/07/02 03:20:02;;;;;;;6.80;4.50;;;20.80;99.90;;;;;;5025863;28;20198;-70
2022/07/02 03:22:30;;;;;;;5.23;4.00;;;20.80;99.90;;;;;;5018722;28;20299;-68
2022/07/02 03:24:57;;;;;;;5.83;3.60;;;20.80;99.90;;;;;;5030903;28;20729;-70
2022/07/02 03:27:24;;;;;;;7.67;4.23;;;20.80;99.90;;;;;;5030453;28;20714;-68
2022/07/02 03:29:51;;;;;;;8.07;5.17;;;20.80;99.90;;;;;;5029221;28;20209;-67
2022/07/02 03:32:18;;;;;;;5.90;4.20;;;20.80;99.90;;;;;;5028494;28;20209;-68
2022/07/02 03:34:45;;;;;;;7.30;4.70;;;20.80;99.90;;;;;;5028434;28;20706;-68
2022/07/02 03:37:12;;;;;;;8.57;4.27;;;20.80;99.90;;;;;;5030361;28;20670;-68
2022/07/02 03:39:40;;;;;;;4.30;3.60;;;20.80;99.90;;;;;;5029955;28;20290;-68
2022/07/02 03:42:07;;;;;;;5.87;4.20;;;20.80;99.90;;;;;;5011029;28;20299;-68
2022/07/02 03:44:34;;;;;;;7.20;3.93;;;20.80;99.90;;;;;;5010406;28;20304;-68
2022/07/02 03:47:01;;;;;;;6.23;4.20;;;20.80;99.90;;;;;;5029020;28;20226;-68
2022/07/02 03:49:28;;;;;;;5.77;4.13;;;20.80;99.90;;;;;;5028718;28;20207;-68
2022/07/02 03:51:55;;;;;;;6.03;4.10;;;20.90;99.90;;;;;;5030157;28;20244;-68
2022/07/02 03:54:22;;;;;;;6.53;4.00;;;20.90;99.90;;;;;;5030109;28;20204;-69
2022/07/02 03:56:50;;;;;;;7.53;4.27;;;20.90;99.90;;;;;;5026975;28;20839;-70
2022/07/02 03:59:17;;;;;;;7.23;4.20;;;20.90;99.90;;;;;;5010440;28;20211;-70
2022/07/02 04:01:44;;;;;;;6.17;4.10;;;21.00;99.90;;;;;;5025739;28;20259;-72
2022/07/02 04:04:11;;;;;;;6.33;4.23;;;21.00;99.90;;;;;;5029950;28;20568;-69
2022/07/02 04:06:38;;;;;;;5.47;4.10;;;21.00;99.90;;;;;;5030568;28;20212;-68
2022/07/02 04:09:05;;;;;;;5.40;3.87;;;21.00;99.90;;;;;;5028257;28;20263;-68
2022/07/02 04:11:32;;;;;;;11.33;7.30;;;21.00;99.90;;;;;;5010017;28;20210;-68
2022/07/02 04:14:00;;;;;;;8.73;4.47;;;21.00;99.90;;;;;;5010228;28;20250;-68
2022/07/02 04:16:27;;;;;;;8.43;4.00;;;21.00;99.90;;;;;;5009924;28;20262;-67
2022/07/02 04:18:54;;;;;;;8.83;4.40;;;21.10;99.90;;;;;;5009798;28;20305;-70
2022/07/02 04:21:21;;;;;;;5.00;4.10;;;21.10;99.90;;;;;;5015804;28;20293;-68
2022/07/02 04:23:48;;;;;;;7.00;3.87;;;21.20;99.90;;;;;;5029676;28;20288;-68
2022/07/02 04:26:15;;;;;;;6.43;4.30;;;21.20;99.90;;;;;;5029665;28;20293;-67
2022/07/02 04:28:41;;;;;;;5.17;3.90;;;21.20;99.90;;;;;;5029560;28;20229;-68
2022/07/02 04:31:10;;;;;;;10.63;4.93;;;21.30;99.90;;;;;;5027352;28;20300;-69
2022/07/02 04:33:37;;;;;;;11.53;4.57;;;21.30;99.90;;;;;;5026980;28;20253;-67
2022/07/02 04:36:04;;;;;;;7.50;4.70;;;21.30;99.90;;;;;;5025275;28;20790;-67
2022/07/02 04:38:31;;;;;;;5.70;3.93;;;21.40;99.90;;;;;;5024422;28;20703;-68
2022/07/02 04:40:57;;;;;;;6.50;3.97;;;21.40;99.90;;;;;;5029216;28;20258;-68
2022/07/02 04:43:24;;;;;;;7.33;3.57;;;21.40;99.90;;;;;;5029299;28;20640;-68
2022/07/02 04:45:51;;;;;;;7.40;3.93;;;21.50;99.90;;;;;;5026934;28;20253;-67
2022/07/02 04:48:20;;;;;;;6.20;4.10;;;21.50;99.90;;;;;;5028719;28;20225;-67
2022/07/02 04:50:46;;;;;;;4.77;3.80;;;21.60;99.90;;;;;;5029133;28;20270;-67
2022/07/02 04:53:13;;;;;;;6.40;4.20;;;21.60;99.90;;;;;;5027543;28;20209;-68
2022/07/02 04:55:40;;;;;;;6.53;4.13;;;21.70;99.90;;;;;;5009623;28;20676;-68
2022/07/02 04:58:07;;;;;;;5.87;3.87;;;21.70;99.90;;;;;;5022278;28;20622;-68
2022/07/02 05:00:34;;;;;;;18.90;4.80;;;21.80;99.90;;;;;;5029175;28;20713;-67
2022/07/02 05:03:01;;;;;;;11.60;4.20;;;21.80;99.90;;;;;;5026302;28;20205;-68
2022/07/02 05:05:29;;;;;;;8.30;4.10;;;21.90;99.90;;;;;;5010161;28;20719;-68
2022/07/02 05:07:56;;;;;;;18.47;5.23;;;22.00;99.90;;;;;;5009034;28;20222;-68
2022/07/02 05:10:23;;;;;;;9.13;4.87;;;22.10;99.90;;;;;;5024016;28;20202;-68
2022/07/02 05:12:50;;;;;;;10.47;4.67;;;22.10;99.90;;;;;;5028815;28;20202;-69
2022/07/02 05:15:17;;;;;;;11.93;5.00;;;22.20;99.90;;;;;;5027067;28;20207;-69
2022/07/02 05:17:44;;;;;;;7.83;4.57;;;22.20;99.90;;;;;;5006468;28;20211;-70
2022/07/02 05:20:12;;;;;;;8.77;4.47;;;22.20;99.90;;;;;;5023102;28;20220;-68
2022/07/02 05:22:40;;;;;;;11.40;4.50;;;22.30;99.90;;;;;;5016831;28;20658;-68
2022/07/02 05:25:07;;;;;;;7.53;4.27;;;22.40;99.90;;;;;;5028735;28;20289;-68
2022/07/02 05:27:34;;;;;;;7.43;3.60;;;22.40;99.90;;;;;;5016516;28;20230;-66
2022/07/02 05:30:01;;;;;;;7.47;4.13;;;22.50;99.90;;;;;;5028554;28;20304;-67
2022/07/02 05:32:28;;;;;;;7.57;4.03;;;22.50;99.90;;;;;;5027051;28;20210;-66
2022/07/02 05:34:55;;;;;;;10.47;4.30;;;22.50;99.90;;;;;;5028593;28;20192;-67
2022/07/02 05:37:22;;;;;;;8.77;4.40;;;22.60;99.90;;;;;;5027400;28;20574;-68
2022/07/02 05:39:50;;;;;;;9.13;4.20;;;22.70;99.90;;;;;;5028618;28;20251;-68
2022/07/02 05:42:17;;;;;;;9.37;4.37;;;22.80;99.90;;;;;;5028661;28;20623;-68
2022/07/02 05:44:44;;;;;;;6.20;4.60;;;22.80;99.90;;;;;;5027433;28;20239;-68
2022/07/02 05:47:11;;;;;;;7.87;4.27;;;22.90;99.90;;;;;;5026390;28;20313;-69
2022/07/02 05:49:38;;;;;;;7.03;4.07;;;23.00;99.90;;;;;;5008894;28;20266;-67
2022/07/02 05:52:05;;;;;;;9.83;4.20;;;23.10;99.90;;;;;;5008464;28;20292;-68
2022/07/02 05:54:32;;;;;;;7.20;4.17;;;23.10;99.90;;;;;;5008848;28;20212;-67
2022/07/02 05:57:00;;;;;;;6.43;3.90;;;23.20;99.90;;;;;;5006656;28;20520;-67
2022/07/02 05:59:27;;;;;;;9.07;3.67;;;23.20;99.90;;;;;;5008794;28;20207;-67
2022/07/02 06:01:54;;;;;;;6.77;3.90;;;23.20;99.90;;;;;;5015529;28;20248;-67
2022/07/02 06:04:21;;;;;;;7.73;3.70;;;23.20;99.90;;;;;;5017980;28;20199;-66
2022/07/02 06:09:32;;;;;;;6.93;3.80;;;23.30;99.90;;;;;;5014998;28;20250;-65
2022/07/02 06:12:00;;;;;;;10.23;4.57;;;23.40;99.90;;;;;;5018510;28;20296;-68
2022/07/02 06:14:27;;;;;;;9.13;3.83;;;23.40;99.90;;;;;;5018324;28;20211;-67
2022/07/02 06:16:54;;;;;;;6.10;3.33;;;23.50;99.90;;;;;;5015963;28;20214;-68
2022/07/02 06:19:22;;;;;;;8.37;3.73;;;23.50;99.90;;;;;;5029043;28;20241;-68
2022/07/02 06:21:49;;;;;;;10.40;3.87;;;23.60;99.90;;;;;;5020837;28;20205;-68
2022/07/02 06:24:15;;;;;;;6.70;3.40;;;23.70;99.90;;;;;;5011785;28;20642;-68
2022/07/02 06:26:42;;;;;;;7.00;3.53;;;23.70;99.90;;;;;;5011748;28;20670;-71
2022/07/02 06:29:11;;;;;;;5.27;3.57;;;23.80;99.90;;;;;;5013380;28;20229;-68
2022/07/02 06:31:38;;;;;;;5.33;3.67;;;23.90;99.90;;;;;;5016111;28;20202;-69
2022/07/02 06:34:06;;;;;;;7.67;3.60;;;23.90;99.90;;;;;;5021486;28;20245;-69
2022/07/02 06:36:33;;;;;;;5.93;3.23;;;24.00;99.90;;;;;;5016385;28;20296;-69
2022/07/02 06:39:00;;;;;;;7.53;4.13;;;24.00;99.90;;;;;;5026301;28;20596;-70
2022/07/02 06:44:12;;;;;;;10.40;3.60;;;24.00;99.90;;;;;;5030359;28;20708;-68
2022/07/02 06:46:39;;;;;;;5.17;3.13;;;24.10;99.90;;;;;;5030844;28;20214;-67
2022/07/02 06:49:06;;;;;;;7.17;3.40;;;24.10;99.90;;;;;;5030611;28;20228;-68
2022/07/02 06:51:33;;;;;;;7.53;3.20;;;24.20;99.90;;;;;;5030576;28;20272;-69
2022/07/02 06:54:01;;;;;;;7.93;3.40;;;24.30;99.90;;;;;;5022376;28;20617;-68
2022/07/02 06:56:29;;;;;;;8.93;3.57;;;24.40;99.90;;;;;;5030959;28;20213;-68
2022/07/02 06:58:57;;;;;;;7.63;3.60;;;24.50;99.90;;;;;;5016037;28;20202;-69
2022/07/02 07:01:25;;;;;;;10.97;4.07;;;24.50;99.90;;;;;;5019012;28;20570;-69
2022/07/02 07:03:52;;;;;;;7.93;3.50;;;24.50;99.90;;;;;;5010877;28;20268;-70
2022/07/02 07:06:20;;;;;;;9.37;5.00;;;24.60;99.90;;;;;;5014817;28;20679;-69
2022/07/02 07:08:52;;;;;;;9.60;5.73;;;24.60;99.90;;;;;;5012899;28;20233;-68
2022/07/02 07:11:19;;;;;;;11.50;3.93;;;24.60;99.90;;;;;;5011352;28;20259;-71
2022/07/02 07:13:46;;;;;;;8.20;3.70;;;24.70;99.90;;;;;;5015600;28;20294;-69
2022/07/02 07:16:13;;;;;;;4.63;3.40;;;24.70;99.90;;;;;;5013009;28;20561;-68
2022/07/02 07:18:42;;;;;;;8.10;3.30;;;24.70;99.90;;;;;;5008706;28;20288;-69
2022/07/02 07:21:09;;;;;;;4.63;3.27;;;24.70;99.90;;;;;;5010613;28;20209;-66
2022/07/02 07:23:36;;;;;;;6.87;3.70;;;24.80;99.90;;;;;;5012275;28;20726;-66
2022/07/02 07:26:03;;;;;;;8.37;3.40;;;24.80;99.90;;;;;;5023999;28;20759;-68
2022/07/02 07:28:30;;;;;;;5.70;3.35;;;24.90;99.90;;;;;;5022778;28;20229;-68
2022/07/02 07:30:57;;;;;;;7.47;3.23;;;24.90;99.90;;;;;;5024613;28;20641;-66
2022/07/02 07:33:24;;;;;;;4.55;3.15;;;24.90;99.90;;;;;;5029210;28;20282;-67
2022/07/02 07:35:53;;;;;;;4.67;3.10;;;25.00;99.90;;;;;;5023144;28;20218;-68
2022/07/02 07:38:20;;;;;;;4.00;2.90;;;25.10;99.90;;;;;;5021294;28;20211;-72
2022/07/02 07:40:47;;;;;;;8.70;3.00;;;25.20;99.90;;;;;;5012381;28;20274;-68
2022/07/02 07:43:13;;;;;;;6.90;3.40;;;25.20;99.90;;;;;;5022959;28;20210;-70
2022/07/02 07:45:40;;;;;;;4.50;2.97;;;25.20;99.90;;;;;;5025699;28;20229;-67
2022/07/02 07:48:07;;;;;;;4.57;2.70;;;25.10;99.90;;;;;;5029938;28;20274;-71
2022/07/02 07:50:34;;;;;;;3.53;2.70;;;25.10;99.90;;;;;;5029459;28;20558;-68
2022/07/02 07:53:03;;;;;;;7.33;3.00;;;25.20;99.90;;;;;;5029870;28;20296;-67
2022/07/02 07:55:29;;;;;;;4.93;3.38;;;25.20;99.90;;;;;;5028253;28;20634;-69
2022/07/02 07:57:56;;;;;;;8.60;2.80;;;25.30;99.90;;;;;;5024928;28;20545;-70
2022/07/02 08:00:24;;;;;;;4.87;2.63;;;25.40;99.90;;;;;;5029880;28;20214;-69
2022/07/02 08:02:51;;;;;;;6.07;3.07;;;25.40;99.90;;;;;;5029608;28;20231;-70
2022/07/02 08:05:17;;;;;;;3.30;3.00;;;25.40;99.90;;;;;;5030267;28;20241;-67
2022/07/02 08:07:44;;;;;;;22.33;3.63;;;25.40;99.90;;;;;;5029397;28;20215;-68
2022/07/02 08:10:13;;;;;;;5.40;2.70;;;25.40;99.90;;;;;;5024895;28;20704;-69
2022/07/02 08:12:40;;;;;;;6.03;2.65;;;25.40;99.90;;;;;;5018174;28;20676;-69
2022/07/02 08:15:08;;;;;;;3.73;2.50;;;25.40;99.90;;;;;;5017835;28;20238;-72
2022/07/02 08:17:36;;;;;;;5.65;2.47;;;25.40;99.90;;;;;;5009792;28;20729;-69
2022/07/02 08:20:04;;;;;;;4.78;2.92;;;25.40;99.90;;;;;;5010156;28;20250;-70
2022/07/02 08:22:31;;;;;;;10.10;3.03;;;25.40;99.90;;;;;;5009329;28;20238;-69
2022/07/02 08:24:58;;;;;;;5.05;2.70;;;25.50;99.90;;;;;;5010139;28;20220;-68
2022/07/02 08:27:27;;;;;;;4.72;2.70;;;25.50;99.90;;;;;;5009129;28;20209;-69
2022/07/02 08:29:54;;;;;;;6.22;2.95;;;25.60;99.90;;;;;;5009445;28;20309;-69
2022/07/02 08:32:21;;;;;;;3.67;2.30;;;25.60;99.90;;;;;;5009360;28;20299;-69
2022/07/02 08:34:48;;;;;;;4.05;2.55;;;25.70;99.90;;;;;;5009722;28;20284;-69
2022/07/02 08:37:15;;;;;;;6.40;3.42;;;25.70;99.90;;;;;;5018725;28;20295;-69
2022/07/02 08:39:42;;;;;;;7.75;2.90;;;25.80;99.70;;;;;;5021285;28;20242;-68
2022/07/02 08:42:10;;;;;;;8.60;3.05;;;25.70;98.50;;;;;;5009618;28;20704;-69
2022/07/02 08:44:41;;;;;;;7.40;2.80;;;25.70;98.50;;;;;;5012531;28;20255;-70
2022/07/02 08:47:09;;;;;;;6.22;2.60;;;25.80;99.00;;;;;;5009578;28;20217;-72
2022/07/02 08:49:39;;;;;;;7.70;3.10;;;25.80;97.70;;;;;;5008749;28;20238;-68
2022/07/02 08:52:08;;;;;;;5.05;2.80;;;25.90;98.20;;;;;;5009137;28;20255;-69
2022/07/02 08:54:36;;;;;;;3.85;2.90;;;25.90;98.20;;;;;;5009126;28;20209;-68
2022/07/02 08:57:05;;;;;;;6.70;2.88;;;25.90;97.30;;;;;;5009276;28;20214;-68
2022/07/02 08:59:32;;;;;;;5.20;2.80;;;25.90;98.00;;;;;;5008839;28;20206;-68
2022/07/02 09:02:01;;;;;;;8.45;3.50;;;26.00;97.80;;;;;;5008991;28;20301;-69
2022/07/02 09:04:29;;;;;;;7.88;2.95;;;26.00;98.30;;;;;;5009042;28;20251;-68
2022/07/02 09:06:58;;;;;;;5.28;3.38;;;26.00;98.20;;;;;;5009353;28;20300;-69
2022/07/02 09:09:26;;;;;;;4.93;2.40;;;26.10;97.70;;;;;;5021793;28;20310;-70
2022/07/02 09:11:54;;;;;;;7.50;2.92;;;26.10;97.70;;;;;;5009263;28;20208;-70
2022/07/02 09:14:21;;;;;;;3.15;2.55;;;26.20;97.80;;;;;;5009438;28;20258;-71
2022/07/02 09:16:49;;;;;;;5.47;2.80;;;26.30;98.20;;;;;;5009170;28;20239;-70
2022/07/02 09:19:18;;;;;;;3.53;2.67;;;26.30;97.80;;;;;;5008533;28;20213;-71
2022/07/02 09:21:49;;;;;;;6.60;3.03;;;26.30;94.60;;;;;;5028467;28;20216;-75
2022/07/02 09:24:27;;;;;;;5.65;2.78;;;26.20;95.00;;;;;;5028703;28;20196;-71
2022/07/02 09:26:59;;;;;;;4.40;2.60;;;26.20;95.10;;;;;;5029009;28;20288;-72
2022/07/02 09:29:27;;;;;;;3.25;2.60;;;26.20;91.60;;;;;;5026880;28;20234;-74
2022/07/02 09:31:53;;;;;;;3.13;2.63;;;26.20;91.00;;;;;;5028455;28;20209;-71
2022/07/02 09:34:29;;;;;;;6.80;2.85;;;26.20;92.00;;;;;;5022924;28;20241;-70
2022/07/02 09:36:56;;;;;;;4.57;2.78;;;26.20;92.50;;;;;;5026666;28;20730;-71
2022/07/02 09:39:30;;;;;;;3.67;2.63;;;26.30;93.30;;;;;;5029685;28;20205;-73
2022/07/02 09:41:57;;;;;;;4.70;2.80;;;26.20;92.40;;;;;;5031569;28;20640;-71
2022/07/02 09:44:25;;;;;;;6.03;3.05;;;26.20;93.10;;;;;;5017229;28;20297;-72
2022/07/02 09:46:52;;;;;;;6.22;2.70;;;26.30;93.60;;;;;;5020030;28;20662;-70
2022/07/02 09:49:19;;;;;;;8.63;2.85;;;26.30;93.80;;;;;;5051413;28;20235;-72
2022/07/02 09:51:50;;;;;;;9.23;2.97;;;26.30;93.10;;;;;;5051702;28;20246;-70
2022/07/02 09:54:22;;;;;;;4.78;2.70;;;26.30;93.70;;;;;;5047799;28;20629;-73
2022/07/02 09:56:53;;;;;;;4.13;2.83;;;26.40;93.80;;;;;;5018985;28;20213;-72
2022/07/02 09:59:20;;;;;;;5.00;2.60;;;26.40;93.60;;;;;;5030650;28;20285;-72
2022/07/02 10:01:47;;;;;;;4.70;2.70;;;26.50;93.40;;;;;;5031653;28;20205;-71
2022/07/02 10:04:14;;;;;;;6.85;3.10;;;26.60;92.90;;;;;;5031906;28;20219;-71
2022/07/02 10:06:43;;;;;;;4.95;2.38;;;26.70;93.00;;;;;;5030544;28;20263;-70
2022/07/02 10:09:13;;;;;;;2.92;2.35;;;26.80;92.90;;;;;;5031408;28;20322;-70
2022/07/02 10:11:40;;;;;;;2.85;2.10;;;26.90;92.70;;;;;;5031657;28;20216;-71
2022/07/02 10:14:10;;;;;;;6.20;2.20;;;26.90;90.40;;;;;;5031738;28;20209;-71
2022/07/02 10:16:39;;;;;;;5.97;2.40;;;26.90;89.00;;;;;;5031301;28;20284;-70
2022/07/02 10:19:06;;;;;;;5.35;2.50;;;26.90;88.10;;;;;;5030642;28;20206;-70
2022/07/02 10:21:33;;;;;;;5.22;2.42;;;26.90;89.60;;;;;;5031191;28;20212;-68
2022/07/02 10:24:02;;;;;;;4.25;2.70;;;26.90;89.30;;;;;;5031418;27;20223;-70
2022/07/02 10:26:31;;;;;;;3.45;2.70;;;26.90;90.00;;;;;;5029286;27;20240;-69
2022/07/02 10:29:01;;;;;;;3.45;2.40;;;27.00;89.60;;;;;;5028200;28;20743;-69
2022/07/02 10:31:32;;;;;;;4.25;2.30;;;26.80;90.20;;;;;;5015722;28;20577;-69
2022/07/02 10:34:14;;;;;;;4.97;2.38;;;26.80;90.10;;;;;;5029140;28;20231;-70
2022/07/02 10:36:42;;;;;;;7.13;5.47;;;26.80;88.90;;;;;;5031178;28;20227;-70
2022/07/02 10:39:15;;;;;;;9.30;5.90;;;26.90;89.50;;;;;;5033205;27;20256;-70
2022/07/02 10:41:44;;;;;;;4.70;3.28;;;27.00;90.80;;;;;;5029424;28;20255;-69
2022/07/02 10:44:11;;;;;;;7.38;3.00;;;27.00;90.40;;;;;;5029268;28;20294;-69
2022/07/02 10:46:39;;;;;;;4.90;2.60;;;27.00;89.60;;;;;;5031401;28;20302;-70
2022/07/02 10:49:06;;;;;;;7.03;2.75;;;27.00;89.90;;;;;;5030803;28;20227;-70
2022/07/02 10:51:35;;;;;;;13.05;3.33;;;27.10;89.60;;;;;;5029281;28;20213;-70
2022/07/02 10:54:03;;;;;;;3.58;2.65;;;27.30;89.60;;;;;;5030932;28;20211;-71
2022/07/02 10:56:31;;;;;;;4.57;2.20;;;27.40;88.30;;;;;;5030981;28;20208;-69
2022/07/02 10:59:00;;;;;;;3.50;2.33;;;27.50;87.60;;;;;;5031288;28;20252;-69
2022/07/02 11:01:27;;;;;;;4.65;2.35;;;27.70;87.40;;;;;;5030622;28;20207;-69
2022/07/02 11:03:56;;;;;;;3.10;2.30;;;27.80;86.90;;;;;;5029080;28;20638;-69
2022/07/02 11:06:24;;;;;;;6.85;2.45;;;27.90;87.50;;;;;;5030496;28;20211;-71
2022/07/02 11:08:53;;;;;;;8.95;2.63;;;27.90;87.20;;;;;;5030735;28;20295;-71
2022/07/02 11:11:29;;;;;;;24.90;3.95;;;27.90;87.20;;;;;;5030935;28;20253;-71
2022/07/02 11:14:01;;;;;;;7.65;3.45;;;28.00;87.70;;;;;;5029836;28;20198;-71
2022/07/02 11:16:29;;;;;;;5.50;2.60;;;28.00;86.00;;;;;;5030872;28;20288;-71
2022/07/02 11:18:59;;;;;;;3.65;2.40;;;27.90;86.80;;;;;;5030891;28;20240;-71
2022/07/02 11:21:27;;;;;;;7.30;5.07;;;27.80;85.20;;;;;;5030915;28;20968;-69
2022/07/02 11:23:54;;;;;;;6.88;3.05;;;27.80;87.60;;;;;;5030259;28;20261;-70
2022/07/02 11:26:23;;;;;;;3.67;2.50;;;27.80;86.90;;;;;;5048851;27;20205;-69
2022/07/02 11:28:50;;;;;;;3.90;2.30;;;27.90;85.50;;;;;;5026161;28;20207;-71
2022/07/02 11:31:20;;;;;;;7.13;2.58;;;27.90;85.50;;;;;;5026180;28;20294;-70
2022/07/02 11:33:49;;;;;;;5.38;2.58;;;27.90;85.50;;;;;;5011847;28;20240;-70
2022/07/02 11:36:17;;;;;;;9.18;2.63;;;27.90;85.50;;;;;;5011041;28;20594;-69
2022/07/02 11:38:45;;;;;;;4.95;2.78;;;27.80;84.20;;;;;;5025886;28;20246;-70
2022/07/02 11:41:23;;;;;;;5.35;2.72;;;27.70;84.40;;;;;;5028496;28;20204;-69
2022/07/02 11:43:52;;;;;;;3.40;2.65;;;27.70;85.30;;;;;;5030768;28;20274;-68
2022/07/02 11:46:22;;;;;;;5.78;2.47;;;27.70;84.30;;;;;;5030661;28;20727;-69
2022/07/02 11:48:50;;;;;;;4.57;2.47;;;27.70;83.60;;;;;;5029271;28;20265;-70
2022/07/02 11:51:19;;;;;;;3.88;2.75;;;27.60;83.30;;;;;;5028548;28;20211;-68
2022/07/02 11:53:56;;;;;;;4.85;2.40;;;27.60;83.80;;;;;;5030242;28;20216;-69
2022/07/02 11:56:23;;;;;;;7.60;2.90;;;27.60;83.30;;;;;;5030110;28;20237;-68
2022/07/02 11:58:51;;;;;;;6.28;2.85;;;27.60;84.80;;;;;;5030108;28;20212;-72
2022/07/02 12:01:24;;;;;;;4.53;2.72;;;27.60;85.80;;;;;;5028876;28;20238;-68
2022/07/02 12:03:52;;;;;;;5.65;2.63;;;27.60;84.80;;;;;;5027537;28;20295;-68
2022/07/02 12:06:19;;;;;;;8.70;2.88;;;27.50;84.40;;;;;;5029733;28;20302;-69
2022/07/02 12:08:46;;;;;;;7.50;2.40;;;27.50;84.90;;;;;;5029872;28;20215;-69
2022/07/02 12:11:14;;;;;;;3.45;2.63;;;27.50;84.30;;;;;;5024774;28;20307;-70
2022/07/02 12:13:42;;;;;;;6.20;3.00;;;27.50;82.50;;;;;;5020177;28;20650;-68
2022/07/02 12:16:11;;;;;;;7.18;2.90;;;27.50;83.70;;;;;;5012628;28;20665;-68
2022/07/02 12:18:40;;;;;;;3.75;2.58;;;27.50;83.90;;;;;;5023694;27;20235;-69
2022/07/02 12:21:12;;;;;;;4.03;2.58;;;27.60;83.80;;;;;;5019362;28;20284;-69
2022/07/02 12:23:43;;;;;;;5.82;2.83;;;27.60;84.20;;;;;;5026557;28;20304;-70
2022/07/02 12:26:11;;;;;;;3.88;2.15;;;27.60;82.80;;;;;;5029240;28;20401;-68
2022/07/02 12:31:22;;;;;;;4.45;2.10;;;27.50;83.40;;;;;;5029542;28;20339;-69
2022/07/02 12:33:56;;;;;;;4.05;2.35;;;27.50;83.50;;;;;;5025617;28;20330;-68
2022/07/02 12:36:23;;;;;;;2.42;2.13;;;27.60;83.60;;;;;;5009819;28;20698;-69
2022/07/02 12:38:50;;;;;;;8.93;2.45;;;27.60;81.60;;;;;;5009851;28;20790;-68
2022/07/02 12:41:17;;;;;;;6.47;3.90;;;27.60;81.50;;;;;;5009399;28;20292;-69
2022/07/02 12:43:53;;;;;;;4.38;2.40;;;27.60;82.20;;;;;;5009224;28;20490;-69
2022/07/02 12:46:20;;;;;;;5.70;2.30;;;27.70;82.10;;;;;;5022024;28;20283;-68
2022/07/02 12:48:47;;;;;;;3.13;2.10;;;27.70;82.10;;;;;;5014569;28;20304;-68
2022/07/02 12:51:15;;;;;;;2.55;2.10;;;27.70;80.90;;;;;;5009197;28;20260;-67
2022/07/02 12:53:42;;;;;;;14.20;2.90;;;27.70;81.00;;;;;;5010538;28;20252;-65
2022/07/02 12:56:10;;;;;;;6.22;2.08;;;27.70;81.50;;;;;;5016920;27;20798;-71
2022/07/02 12:58:38;;;;;;;3.42;2.50;;;27.80;82.00;;;;;;5029384;28;20674;-71
2022/07/02 13:01:05;;;;;;;4.78;2.20;;;27.80;81.60;;;;;;5015572;28;20570;-71